sensor_id;sensor_type;location;lat;lon;timestamp;P1;durP1;ratioP1;P2;durP2;ratioP2
22429;SDS011;11382;48.086;11.632;2023-11-18T00:00:09;10.48;;;7.03;;
22429;SDS011;11382;48.086;11.632;2023-11-18T00:02:39;9.25;;;6.63;;
22429;SDS011;11382;48.086;11.632;2023-11-18T00:05:10;8.95;;;6.50;;
22429;SDS011;11382;48.086;11.632;2023-11-18T00:07:39;8.50;;;6.72;;
22429;SDS011;11382;48.086;11.632;2023-11-18T00:10:08;9.43;;;7.32;;
22429;SDS011;11382;48.086;11.632;2023-11-18T00:12:37;10.63;;;6.93;;
22429;SDS011;11382;48.086;11.632;2023-11-18T00:15:08;9.52;;;7.22;;
22429;SDS011;11382;48.086;11.632;2023-11-18T00:17:36;10.32;;;7.35;;
22429;SDS011;11382;48.086;11.632;2023-11-18T00:20:05;9.98;;;7.78;;
22429;SDS011;11382;48.086;11.632;2023-11-18T00:22:37;12.32;;;7.65;;
22429;SDS011;11382;48.086;11.632;2023-11-18T00:25:07;9.77;;;7.13;;
22429;SDS011;11382;48.086;11.632;2023-11-18T00:27:37;7.78;;;6.30;;
22429;SDS011;11382;48.086;11.632;2023-11-18T00:30:05;10.88;;;6.57;;
22429;SDS011;11382;48.086;11.632;2023-11-18T00:32:34;10.23;;;7.13;;
22429;SDS011;11382;48.086;11.632;2023-11-18T00:35:03;9.93;;;6.80;;
22429;SDS011;11382;48.086;11.632;2023-11-18T00:37:32;9.02;;;6.15;;
22429;SDS011;11382;48.086;11.632;2023-11-18T00:40:00;8.52;;;7.10;;
22429;SDS011;11382;48.086;11.632;2023-11-18T00:42:30;12.73;;;6.90;;
22429;SDS011;11382;48.086;11.632;2023-11-18T00:44:58;8.40;;;6.57;;
22429;SDS011;11382;48.086;11.632;2023-11-18T00:47:27;7.38;;;6.40;;
22429;SDS011;11382;48.086;11.632;2023-11-18T00:49:55;8.52;;;6.03;;
22429;SDS011;11382;48.086;11.632;2023-11-18T00:52:24;8.13;;;5.97;;
22429;SDS011;11382;48.086;11.632;2023-11-18T00:54:52;8.27;;;5.88;;
22429;SDS011;11382;48.086;11.632;2023-11-18T00:57:20;8.20;;;5.93;;
22429;SDS011;11382;48.086;11.632;2023-11-18T00:59:49;8.68;;;6.10;;
22429;SDS011;11382;48.086;11.632;2023-11-18T01:02:17;7.07;;;5.70;;
22429;SDS011;11382;48.086;11.632;2023-11-18T01:04:45;6.18;;;4.95;;
22429;SDS011;11382;48.086;11.632;2023-11-18T01:07:14;6.03;;;4.70;;
22429;SDS011;11382;48.086;11.632;2023-11-18T01:09:42;5.88;;;5.15;;
22429;SDS011;11382;48.086;11.632;2023-11-18T01:12:10;7.63;;;5.40;;
22429;SDS011;11382;48.086;11.632;2023-11-18T01:14:38;7.75;;;5.13;;
22429;SDS011;11382;48.086;11.632;2023-11-18T01:17:09;7.00;;;4.68;;
22429;SDS011;11382;48.086;11.632;2023-11-18T01:19:37;5.32;;;4.35;;
22429;SDS011;11382;48.086;11.632;2023-11-18T01:22:06;5.88;;;4.45;;
22429;SDS011;11382;48.086;11.632;2023-11-18T01:24:35;4.50;;;3.88;;
22429;SDS011;11382;48.086;11.632;2023-11-18T01:27:03;5.40;;;4.00;;
22429;SDS011;11382;48.086;11.632;2023-11-18T01:29:34;5.25;;;4.03;;
22429;SDS011;11382;48.086;11.632;2023-11-18T01:32:02;4.53;;;3.72;;
22429;SDS011;11382;48.086;11.632;2023-11-18T01:37:06;5.22;;;4.18;;
22429;SDS011;11382;48.086;11.632;2023-11-18T01:39:35;4.07;;;3.67;;
22429;SDS011;11382;48.086;11.632;2023-11-18T01:42:04;5.40;;;3.53;;
22429;SDS011;11382;48.086;11.632;2023-11-18T01:44:32;3.72;;;3.33;;
22429;SDS011;11382;48.086;11.632;2023-11-18T01:47:01;3.30;;;3.00;;
22429;SDS011;11382;48.086;11.632;2023-11-18T01:49:33;3.55;;;3.15;;
22429;SDS011;11382;48.086;11.632;2023-11-18T01:52:06;4.10;;;2.97;;
22429;SDS011;11382;48.086;11.632;2023-11-18T01:54:35;3.08;;;2.65;;
22429;SDS011;11382;48.086;11.632;2023-11-18T01:57:05;4.45;;;3.08;;
22429;SDS011;11382;48.086;11.632;2023-11-18T01:59:36;2.55;;;2.35;;
22429;SDS011;11382;48.086;11.632;2023-11-18T02:02:04;3.95;;;2.90;;
22429;SDS011;11382;48.086;11.632;2023-11-18T02:04:32;3.72;;;2.85;;
22429;SDS011;11382;48.086;11.632;2023-11-18T02:07:02;3.22;;;2.65;;
22429;SDS011;11382;48.086;11.632;2023-11-18T02:09:35;3.13;;;2.65;;
22429;SDS011;11382;48.086;11.632;2023-11-18T02:12:06;4.68;;;2.33;;
22429;SDS011;11382;48.086;11.632;2023-11-18T02:14:43;2.97;;;2.60;;
22429;SDS011;11382;48.086;11.632;2023-11-18T02:17:14;3.63;;;2.90;;
22429;SDS011;11382;48.086;11.632;2023-11-18T02:19:44;3.13;;;2.83;;
22429;SDS011;11382;48.086;11.632;2023-11-18T02:22:15;4.53;;;2.47;;
22429;SDS011;11382;48.086;11.632;2023-11-18T02:24:43;3.13;;;2.75;;
22429;SDS011;11382;48.086;11.632;2023-11-18T02:27:13;3.67;;;3.28;;
22429;SDS011;11382;48.086;11.632;2023-11-18T02:29:42;4.53;;;3.00;;
22429;SDS011;11382;48.086;11.632;2023-11-18T02:32:15;2.70;;;2.10;;
22429;SDS011;11382;48.086;11.632;2023-11-18T02:34:51;2.90;;;2.60;;
22429;SDS011;11382;48.086;11.632;2023-11-18T02:37:25;3.15;;;2.72;;
22429;SDS011;11382;48.086;11.632;2023-11-18T02:39:57;4.70;;;2.80;;
22429;SDS011;11382;48.086;11.632;2023-11-18T02:42:32;3.97;;;3.10;;
22429;SDS011;11382;48.086;11.632;2023-11-18T02:45:01;3.92;;;2.70;;
22429;SDS011;11382;48.086;11.632;2023-11-18T02:47:30;3.13;;;2.50;;
22429;SDS011;11382;48.086;11.632;2023-11-18T02:49:58;3.10;;;2.80;;
22429;SDS011;11382;48.086;11.632;2023-11-18T02:52:32;3.00;;;2.67;;
22429;SDS011;11382;48.086;11.632;2023-11-18T02:55:00;3.53;;;2.90;;
22429;SDS011;11382;48.086;11.632;2023-11-18T02:57:29;2.90;;;2.50;;
22429;SDS011;11382;48.086;11.632;2023-11-18T02:59:58;3.67;;;2.80;;
22429;SDS011;11382;48.086;11.632;2023-11-18T03:02:27;3.95;;;2.88;;
22429;SDS011;11382;48.086;11.632;2023-11-18T03:04:58;3.13;;;2.58;;
22429;SDS011;11382;48.086;11.632;2023-11-18T03:07:26;3.00;;;2.70;;
22429;SDS011;11382;48.086;11.632;2023-11-18T03:09:54;2.97;;;2.50;;
22429;SDS011;11382;48.086;11.632;2023-11-18T03:12:23;5.63;;;3.00;;
22429;SDS011;11382;48.086;11.632;2023-11-18T03:14:54;2.83;;;2.55;;
22429;SDS011;11382;48.086;11.632;2023-11-18T03:17:25;2.72;;;2.33;;
22429;SDS011;11382;48.086;11.632;2023-11-18T03:19:53;3.75;;;2.72;;
22429;SDS011;11382;48.086;11.632;2023-11-18T03:22:21;3.13;;;2.70;;
22429;SDS011;11382;48.086;11.632;2023-11-18T03:24:50;2.92;;;2.47;;
22429;SDS011;11382;48.086;11.632;2023-11-18T03:27:18;3.63;;;3.13;;
22429;SDS011;11382;48.086;11.632;2023-11-18T03:29:46;3.05;;;2.72;;
22429;SDS011;11382;48.086;11.632;2023-11-18T03:32:18;2.85;;;2.55;;
22429;SDS011;11382;48.086;11.632;2023-11-18T03:34:48;3.67;;;2.80;;
22429;SDS011;11382;48.086;11.632;2023-11-18T03:37:16;3.50;;;2.95;;
22429;SDS011;11382;48.086;11.632;2023-11-18T03:39:44;3.40;;;2.80;;
22429;SDS011;11382;48.086;11.632;2023-11-18T03:42:12;3.13;;;2.72;;
22429;SDS011;11382;48.086;11.632;2023-11-18T03:44:43;3.65;;;3.20;;
22429;SDS011;11382;48.086;11.632;2023-11-18T03:47:13;3.42;;;2.80;;
22429;SDS011;11382;48.086;11.632;2023-11-18T03:49:42;3.85;;;2.97;;
22429;SDS011;11382;48.086;11.632;2023-11-18T03:52:11;5.55;;;3.20;;
22429;SDS011;11382;48.086;11.632;2023-11-18T03:54:39;4.35;;;3.45;;
22429;SDS011;11382;48.086;11.632;2023-11-18T03:57:08;4.45;;;3.70;;
22429;SDS011;11382;48.086;11.632;2023-11-18T03:59:36;4.60;;;3.42;;
22429;SDS011;11382;48.086;11.632;2023-11-18T04:02:06;3.95;;;3.33;;
22429;SDS011;11382;48.086;11.632;2023-11-18T04:04:34;4.40;;;3.15;;
22429;SDS011;11382;48.086;11.632;2023-11-18T04:07:02;4.03;;;3.33;;
22429;SDS011;11382;48.086;11.632;2023-11-18T04:09:31;4.60;;;3.42;;
22429;SDS011;11382;48.086;11.632;2023-11-18T04:12:00;4.65;;;3.50;;
22429;SDS011;11382;48.086;11.632;2023-11-18T04:14:28;4.65;;;3.92;;
22429;SDS011;11382;48.086;11.632;2023-11-18T04:16:56;5.32;;;3.55;;
22429;SDS011;11382;48.086;11.632;2023-11-18T04:19:24;5.15;;;4.00;;
22429;SDS011;11382;48.086;11.632;2023-11-18T04:21:52;5.43;;;3.38;;
22429;SDS011;11382;48.086;11.632;2023-11-18T04:24:20;4.43;;;3.33;;
22429;SDS011;11382;48.086;11.632;2023-11-18T04:26:49;4.65;;;3.40;;
22429;SDS011;11382;48.086;11.632;2023-11-18T04:29:17;4.35;;;3.60;;
22429;SDS011;11382;48.086;11.632;2023-11-18T04:31:45;4.80;;;3.80;;
22429;SDS011;11382;48.086;11.632;2023-11-18T04:34:13;4.57;;;3.85;;
22429;SDS011;11382;48.086;11.632;2023-11-18T04:36:43;5.70;;;4.15;;
22429;SDS011;11382;48.086;11.632;2023-11-18T04:39:11;4.55;;;3.67;;
22429;SDS011;11382;48.086;11.632;2023-11-18T04:41:39;6.72;;;4.55;;
22429;SDS011;11382;48.086;11.632;2023-11-18T04:44:08;5.68;;;3.72;;
22429;SDS011;11382;48.086;11.632;2023-11-18T04:46:36;4.70;;;3.80;;
22429;SDS011;11382;48.086;11.632;2023-11-18T04:49:04;5.50;;;4.10;;
22429;SDS011;11382;48.086;11.632;2023-11-18T04:51:32;4.80;;;3.70;;
22429;SDS011;11382;48.086;11.632;2023-11-18T04:54:00;4.57;;;3.60;;
22429;SDS011;11382;48.086;11.632;2023-11-18T04:56:29;5.13;;;3.92;;
22429;SDS011;11382;48.086;11.632;2023-11-18T04:58:57;4.00;;;3.25;;
22429;SDS011;11382;48.086;11.632;2023-11-18T05:01:27;5.60;;;3.80;;
22429;SDS011;11382;48.086;11.632;2023-11-18T05:03:55;4.53;;;3.42;;
22429;SDS011;11382;48.086;11.632;2023-11-18T05:06:23;4.95;;;3.63;;
22429;SDS011;11382;48.086;11.632;2023-11-18T05:08:52;4.82;;;3.53;;
22429;SDS011;11382;48.086;11.632;2023-11-18T05:11:21;4.82;;;3.17;;
22429;SDS011;11382;48.086;11.632;2023-11-18T05:13:49;4.50;;;3.17;;
22429;SDS011;11382;48.086;11.632;2023-11-18T05:16:17;6.50;;;3.40;;
22429;SDS011;11382;48.086;11.632;2023-11-18T05:18:46;4.93;;;3.67;;
22429;SDS011;11382;48.086;11.632;2023-11-18T05:21:14;4.20;;;3.70;;
22429;SDS011;11382;48.086;11.632;2023-11-18T05:23:42;6.32;;;4.05;;
22429;SDS011;11382;48.086;11.632;2023-11-18T05:26:10;5.22;;;3.70;;
22429;SDS011;11382;48.086;11.632;2023-11-18T05:28:38;6.78;;;4.00;;
22429;SDS011;11382;48.086;11.632;2023-11-18T05:31:06;6.55;;;3.90;;
22429;SDS011;11382;48.086;11.632;2023-11-18T05:33:34;5.63;;;4.00;;
22429;SDS011;11382;48.086;11.632;2023-11-18T05:36:05;5.63;;;4.30;;
22429;SDS011;11382;48.086;11.632;2023-11-18T05:38:33;5.30;;;3.63;;
22429;SDS011;11382;48.086;11.632;2023-11-18T05:41:02;5.13;;;4.00;;
22429;SDS011;11382;48.086;11.632;2023-11-18T05:43:33;5.18;;;4.00;;
22429;SDS011;11382;48.086;11.632;2023-11-18T05:46:06;5.80;;;4.35;;
22429;SDS011;11382;48.086;11.632;2023-11-18T05:48:46;4.95;;;3.70;;
22429;SDS011;11382;48.086;11.632;2023-11-18T05:51:19;5.20;;;4.45;;
22429;SDS011;11382;48.086;11.632;2023-11-18T05:53:49;5.05;;;3.55;;
22429;SDS011;11382;48.086;11.632;2023-11-18T05:56:18;5.03;;;3.85;;
22429;SDS011;11382;48.086;11.632;2023-11-18T05:58:49;7.32;;;4.00;;
22429;SDS011;11382;48.086;11.632;2023-11-18T06:01:19;5.40;;;3.88;;
22429;SDS011;11382;48.086;11.632;2023-11-18T06:03:48;4.82;;;3.75;;
22429;SDS011;11382;48.086;11.632;2023-11-18T06:06:16;6.30;;;4.40;;
22429;SDS011;11382;48.086;11.632;2023-11-18T06:08:50;4.68;;;3.90;;
22429;SDS011;11382;48.086;11.632;2023-11-18T06:11:20;7.72;;;4.30;;
22429;SDS011;11382;48.086;11.632;2023-11-18T06:13:50;6.75;;;3.45;;
22429;SDS011;11382;48.086;11.632;2023-11-18T06:16:19;5.95;;;4.40;;
22429;SDS011;11382;48.086;11.632;2023-11-18T06:18:49;6.65;;;4.10;;
22429;SDS011;11382;48.086;11.632;2023-11-18T06:21:19;5.93;;;4.05;;
22429;SDS011;11382;48.086;11.632;2023-11-18T06:23:52;5.53;;;3.90;;
22429;SDS011;11382;48.086;11.632;2023-11-18T06:26:21;5.03;;;3.72;;
22429;SDS011;11382;48.086;11.632;2023-11-18T06:28:50;4.85;;;3.60;;
22429;SDS011;11382;48.086;11.632;2023-11-18T06:31:18;4.20;;;3.20;;
22429;SDS011;11382;48.086;11.632;2023-11-18T06:33:47;4.53;;;3.47;;
22429;SDS011;11382;48.086;11.632;2023-11-18T06:36:18;7.55;;;3.88;;
22429;SDS011;11382;48.086;11.632;2023-11-18T06:38:48;5.07;;;3.70;;
22429;SDS011;11382;48.086;11.632;2023-11-18T06:41:18;4.40;;;3.28;;
22429;SDS011;11382;48.086;11.632;2023-11-18T06:43:50;4.38;;;3.38;;
22429;SDS011;11382;48.086;11.632;2023-11-18T06:46:27;4.45;;;3.58;;
22429;SDS011;11382;48.086;11.632;2023-11-18T06:48:58;4.78;;;3.33;;
22429;SDS011;11382;48.086;11.632;2023-11-18T06:51:30;5.55;;;4.00;;
22429;SDS011;11382;48.086;11.632;2023-11-18T06:54:02;5.20;;;3.85;;
22429;SDS011;11382;48.086;11.632;2023-11-18T06:56:37;5.63;;;4.00;;
22429;SDS011;11382;48.086;11.632;2023-11-18T06:59:05;6.22;;;4.13;;
22429;SDS011;11382;48.086;11.632;2023-11-18T07:01:34;4.43;;;3.55;;
22429;SDS011;11382;48.086;11.632;2023-11-18T07:04:03;4.63;;;3.65;;
22429;SDS011;11382;48.086;11.632;2023-11-18T07:06:32;5.38;;;3.92;;
22429;SDS011;11382;48.086;11.632;2023-11-18T07:09:04;6.10;;;4.20;;
22429;SDS011;11382;48.086;11.632;2023-11-18T07:11:40;4.05;;;3.53;;
22429;SDS011;11382;48.086;11.632;2023-11-18T07:14:08;4.63;;;3.22;;
22429;SDS011;11382;48.086;11.632;2023-11-18T07:16:37;5.82;;;4.15;;
22429;SDS011;11382;48.086;11.632;2023-11-18T07:19:06;3.83;;;3.10;;
22429;SDS011;11382;48.086;11.632;2023-11-18T07:21:36;5.43;;;3.65;;
22429;SDS011;11382;48.086;11.632;2023-11-18T07:24:04;5.97;;;3.70;;
22429;SDS011;11382;48.086;11.632;2023-11-18T07:26:33;5.13;;;3.50;;
22429;SDS011;11382;48.086;11.632;2023-11-18T07:29:02;5.47;;;3.40;;
22429;SDS011;11382;48.086;11.632;2023-11-18T07:31:34;4.93;;;3.35;;
22429;SDS011;11382;48.086;11.632;2023-11-18T07:34:03;4.65;;;3.28;;
22429;SDS011;11382;48.086;11.632;2023-11-18T07:36:32;5.97;;;3.17;;
22429;SDS011;11382;48.086;11.632;2023-11-18T07:39:00;4.32;;;3.05;;
22429;SDS011;11382;48.086;11.632;2023-11-18T07:41:30;6.07;;;3.67;;
22429;SDS011;11382;48.086;11.632;2023-11-18T07:43:59;4.70;;;3.35;;
22429;SDS011;11382;48.086;11.632;2023-11-18T07:46:29;4.13;;;2.92;;
22429;SDS011;11382;48.086;11.632;2023-11-18T07:48:58;3.80;;;3.20;;
22429;SDS011;11382;48.086;11.632;2023-11-18T07:51:28;3.88;;;2.97;;
22429;SDS011;11382;48.086;11.632;2023-11-18T07:53:56;4.50;;;3.03;;
22429;SDS011;11382;48.086;11.632;2023-11-18T07:56:24;3.97;;;3.25;;
22429;SDS011;11382;48.086;11.632;2023-11-18T07:58:55;3.55;;;2.72;;
22429;SDS011;11382;48.086;11.632;2023-11-18T08:01:23;4.07;;;2.75;;
22429;SDS011;11382;48.086;11.632;2023-11-18T08:03:53;2.88;;;2.42;;
22429;SDS011;11382;48.086;11.632;2023-11-18T08:06:21;2.85;;;2.47;;
22429;SDS011;11382;48.086;11.632;2023-11-18T08:08:52;3.22;;;2.85;;
22429;SDS011;11382;48.086;11.632;2023-11-18T08:11:20;3.55;;;2.58;;
22429;SDS011;11382;48.086;11.632;2023-11-18T08:13:49;3.35;;;2.75;;
22429;SDS011;11382;48.086;11.632;2023-11-18T08:16:17;3.72;;;2.97;;
22429;SDS011;11382;48.086;11.632;2023-11-18T08:18:46;2.97;;;2.42;;
22429;SDS011;11382;48.086;11.632;2023-11-18T08:21:15;4.30;;;3.20;;
22429;SDS011;11382;48.086;11.632;2023-11-18T08:23:43;6.50;;;2.97;;
22429;SDS011;11382;48.086;11.632;2023-11-18T08:26:11;3.00;;;2.50;;
22429;SDS011;11382;48.086;11.632;2023-11-18T08:28:39;4.07;;;2.50;;
22429;SDS011;11382;48.086;11.632;2023-11-18T08:31:08;3.00;;;2.60;;
22429;SDS011;11382;48.086;11.632;2023-11-18T08:33:36;2.92;;;2.22;;
22429;SDS011;11382;48.086;11.632;2023-11-18T08:36:04;4.18;;;2.78;;
22429;SDS011;11382;48.086;11.632;2023-11-18T08:38:35;3.83;;;2.80;;
22429;SDS011;11382;48.086;11.632;2023-11-18T08:41:03;2.72;;;2.40;;
22429;SDS011;11382;48.086;11.632;2023-11-18T08:43:35;2.58;;;2.17;;
22429;SDS011;11382;48.086;11.632;2023-11-18T08:46:03;2.55;;;2.35;;
22429;SDS011;11382;48.086;11.632;2023-11-18T08:48:33;4.28;;;2.72;;
22429;SDS011;11382;48.086;11.632;2023-11-18T08:51:01;2.80;;;2.55;;
22429;SDS011;11382;48.086;11.632;2023-11-18T08:53:29;3.60;;;2.20;;
22429;SDS011;11382;48.086;11.632;2023-11-18T08:56:04;2.88;;;2.15;;
22429;SDS011;11382;48.086;11.632;2023-11-18T08:58:33;3.05;;;2.30;;
22429;SDS011;11382;48.086;11.632;2023-11-18T09:01:02;3.30;;;2.25;;
22429;SDS011;11382;48.086;11.632;2023-11-18T09:03:39;3.55;;;2.30;;
22429;SDS011;11382;48.086;11.632;2023-11-18T09:06:15;2.20;;;1.92;;
22429;SDS011;11382;48.086;11.632;2023-11-18T09:08:52;2.63;;;2.10;;
22429;SDS011;11382;48.086;11.632;2023-11-18T09:11:22;4.45;;;2.33;;
22429;SDS011;11382;48.086;11.632;2023-11-18T09:13:53;3.05;;;2.30;;
22429;SDS011;11382;48.086;11.632;2023-11-18T09:16:26;4.97;;;1.95;;
22429;SDS011;11382;48.086;11.632;2023-11-18T09:18:56;2.40;;;2.20;;
22429;SDS011;11382;48.086;11.632;2023-11-18T09:21:25;2.95;;;2.20;;
22429;SDS011;11382;48.086;11.632;2023-11-18T09:23:55;2.33;;;1.98;;
22429;SDS011;11382;48.086;11.632;2023-11-18T09:26:25;2.85;;;2.13;;
22429;SDS011;11382;48.086;11.632;2023-11-18T09:28:56;2.40;;;1.85;;
22429;SDS011;11382;48.086;11.632;2023-11-18T09:31:24;1.98;;;1.80;;
22429;SDS011;11382;48.086;11.632;2023-11-18T09:33:53;4.38;;;2.10;;
22429;SDS011;11382;48.086;11.632;2023-11-18T09:36:24;2.95;;;2.17;;
22429;SDS011;11382;48.086;11.632;2023-11-18T09:38:55;2.05;;;1.80;;
22429;SDS011;11382;48.086;11.632;2023-11-18T09:41:24;1.98;;;1.77;;
22429;SDS011;11382;48.086;11.632;2023-11-18T09:43:54;2.00;;;1.80;;
22429;SDS011;11382;48.086;11.632;2023-11-18T09:46:24;1.98;;;1.70;;
22429;SDS011;11382;48.086;11.632;2023-11-18T09:49:01;1.75;;;1.60;;
22429;SDS011;11382;48.086;11.632;2023-11-18T09:51:42;1.70;;;1.60;;
22429;SDS011;11382;48.086;11.632;2023-11-18T09:54:17;2.53;;;1.77;;
22429;SDS011;11382;48.086;11.632;2023-11-18T09:56:54;2.60;;;1.75;;
22429;SDS011;11382;48.086;11.632;2023-11-18T09:59:39;2.95;;;2.05;;
22429;SDS011;11382;48.086;11.632;2023-11-18T10:02:13;3.50;;;1.95;;
22429;SDS011;11382;48.086;11.632;2023-11-18T10:04:45;2.72;;;1.80;;
22429;SDS011;11382;48.086;11.632;2023-11-18T10:07:16;2.47;;;2.08;;
22429;SDS011;11382;48.086;11.632;2023-11-18T10:09:46;1.85;;;1.52;;
22429;SDS011;11382;48.086;11.632;2023-11-18T10:12:17;1.65;;;1.55;;
22429;SDS011;11382;48.086;11.632;2023-11-18T10:14:50;2.35;;;1.63;;
22429;SDS011;11382;48.086;11.632;2023-11-18T10:17:18;1.40;;;1.30;;
22429;SDS011;11382;48.086;11.632;2023-11-18T10:19:54;3.40;;;1.38;;
22429;SDS011;11382;48.086;11.632;2023-11-18T10:22:24;1.55;;;1.40;;
22429;SDS011;11382;48.086;11.632;2023-11-18T10:24:54;5.10;;;1.58;;
22429;SDS011;11382;48.086;11.632;2023-11-18T10:27:25;1.48;;;1.20;;
22429;SDS011;11382;48.086;11.632;2023-11-18T10:29:57;2.03;;;1.35;;
22429;SDS011;11382;48.086;11.632;2023-11-18T10:32:28;1.27;;;1.00;;
22429;SDS011;11382;48.086;11.632;2023-11-18T10:35:01;1.60;;;1.30;;
22429;SDS011;11382;48.086;11.632;2023-11-18T10:37:32;3.13;;;1.27;;
22429;SDS011;11382;48.086;11.632;2023-11-18T10:40:06;2.20;;;1.38;;
22429;SDS011;11382;48.086;11.632;2023-11-18T10:42:37;1.45;;;1.35;;
22429;SDS011;11382;48.086;11.632;2023-11-18T10:45:05;1.35;;;1.20;;
22429;SDS011;11382;48.086;11.632;2023-11-18T10:47:39;2.25;;;1.17;;
22429;SDS011;11382;48.086;11.632;2023-11-18T10:50:10;1.77;;;1.23;;
22429;SDS011;11382;48.086;11.632;2023-11-18T10:52:39;2.40;;;1.10;;
22429;SDS011;11382;48.086;11.632;2023-11-18T10:55:08;1.70;;;1.17;;
22429;SDS011;11382;48.086;11.632;2023-11-18T10:57:41;1.63;;;1.13;;
22429;SDS011;11382;48.086;11.632;2023-11-18T11:00:10;2.88;;;1.17;;
22429;SDS011;11382;48.086;11.632;2023-11-18T11:02:41;1.30;;;1.20;;
22429;SDS011;11382;48.086;11.632;2023-11-18T11:05:10;1.40;;;1.25;;
22429;SDS011;11382;48.086;11.632;2023-11-18T11:07:47;2.50;;;1.20;;
22429;SDS011;11382;48.086;11.632;2023-11-18T11:10:16;1.92;;;1.30;;
22429;SDS011;11382;48.086;11.632;2023-11-18T11:12:53;2.17;;;1.10;;
22429;SDS011;11382;48.086;11.632;2023-11-18T11:15:25;1.33;;;1.08;;
22429;SDS011;11382;48.086;11.632;2023-11-18T11:18:14;2.25;;;0.90;;
22429;SDS011;11382;48.086;11.632;2023-11-18T11:20:53;1.05;;;0.80;;
22429;SDS011;11382;48.086;11.632;2023-11-18T11:23:30;0.98;;;0.90;;
22429;SDS011;11382;48.086;11.632;2023-11-18T11:26:13;0.85;;;0.82;;
22429;SDS011;11382;48.086;11.632;2023-11-18T11:29:01;1.10;;;1.00;;
22429;SDS011;11382;48.086;11.632;2023-11-18T11:31:37;1.15;;;0.85;;
22429;SDS011;11382;48.086;11.632;2023-11-18T11:34:09;1.10;;;0.80;;
22429;SDS011;11382;48.086;11.632;2023-11-18T11:36:47;1.50;;;0.90;;
22429;SDS011;11382;48.086;11.632;2023-11-18T11:39:18;0.95;;;0.70;;
22429;SDS011;11382;48.086;11.632;2023-11-18T11:41:53;2.15;;;0.90;;
22429;SDS011;11382;48.086;11.632;2023-11-18T11:44:24;1.92;;;0.70;;
22429;SDS011;11382;48.086;11.632;2023-11-18T11:46:57;1.90;;;0.80;;
22429;SDS011;11382;48.086;11.632;2023-11-18T11:49:35;0.95;;;0.70;;
22429;SDS011;11382;48.086;11.632;2023-11-18T11:52:14;1.30;;;0.80;;
22429;SDS011;11382;48.086;11.632;2023-11-18T11:54:48;1.40;;;0.60;;
22429;SDS011;11382;48.086;11.632;2023-11-18T11:57:24;1.30;;;0.70;;
22429;SDS011;11382;48.086;11.632;2023-11-18T11:59:59;1.42;;;0.68;;
22429;SDS011;11382;48.086;11.632;2023-11-18T12:02:47;0.73;;;0.70;;
22429;SDS011;11382;48.086;11.632;2023-11-18T12:05:16;1.77;;;0.50;;
22429;SDS011;11382;48.086;11.632;2023-11-18T12:07:46;1.75;;;0.82;;
22429;SDS011;11382;48.086;11.632;2023-11-18T12:10:14;2.65;;;0.60;;
22429;SDS011;11382;48.086;11.632;2023-11-18T12:12:47;1.80;;;1.05;;
22429;SDS011;11382;48.086;11.632;2023-11-18T12:18:25;1.48;;;1.00;;
22429;SDS011;11382;48.086;11.632;2023-11-18T12:20:53;4.38;;;0.90;;
22429;SDS011;11382;48.086;11.632;2023-11-18T12:23:22;0.77;;;0.70;;
22429;SDS011;11382;48.086;11.632;2023-11-18T12:25:52;2.15;;;0.80;;
22429;SDS011;11382;48.086;11.632;2023-11-18T12:28:24;2.08;;;0.80;;
22429;SDS011;11382;48.086;11.632;2023-11-18T12:30:54;1.50;;;0.60;;
22429;SDS011;11382;48.086;11.632;2023-11-18T12:36:53;0.63;;;0.60;;
22429;SDS011;11382;48.086;11.632;2023-11-18T12:42:53;0.80;;;0.60;;
22429;SDS011;11382;48.086;11.632;2023-11-18T12:48:33;0.80;;;0.52;;
22429;SDS011;11382;48.086;11.632;2023-11-18T12:51:07;0.70;;;0.60;;
22429;SDS011;11382;48.086;11.632;2023-11-18T12:53:48;1.10;;;0.73;;
22429;SDS011;11382;48.086;11.632;2023-11-18T12:56:19;5.85;;;1.30;;
22429;SDS011;11382;48.086;11.632;2023-11-18T12:58:49;1.50;;;0.70;;
22429;SDS011;11382;48.086;11.632;2023-11-18T13:01:18;1.75;;;0.70;;
22429;SDS011;11382;48.086;11.632;2023-11-18T13:03:46;1.10;;;0.70;;
22429;SDS011;11382;48.086;11.632;2023-11-18T13:06:16;3.15;;;0.70;;
22429;SDS011;11382;48.086;11.632;2023-11-18T13:08:46;0.98;;;0.70;;
22429;SDS011;11382;48.086;11.632;2023-11-18T13:11:15;1.70;;;0.75;;
22429;SDS011;11382;48.086;11.632;2023-11-18T13:13:43;1.13;;;0.80;;
22429;SDS011;11382;48.086;11.632;2023-11-18T13:16:12;1.80;;;0.70;;
22429;SDS011;11382;48.086;11.632;2023-11-18T13:18:41;0.63;;;0.60;;
22429;SDS011;11382;48.086;11.632;2023-11-18T13:21:14;2.65;;;0.80;;
22429;SDS011;11382;48.086;11.632;2023-11-18T13:23:48;1.33;;;0.68;;
22429;SDS011;11382;48.086;11.632;2023-11-18T13:26:19;0.65;;;0.60;;
22429;SDS011;11382;48.086;11.632;2023-11-18T13:28:47;0.90;;;0.70;;
22429;SDS011;11382;48.086;11.632;2023-11-18T13:31:16;0.85;;;0.65;;
22429;SDS011;11382;48.086;11.632;2023-11-18T13:33:46;1.17;;;0.90;;
22429;SDS011;11382;48.086;11.632;2023-11-18T13:36:15;1.25;;;0.68;;
22429;SDS011;11382;48.086;11.632;2023-11-18T13:38:43;1.85;;;0.82;;
22429;SDS011;11382;48.086;11.632;2023-11-18T13:41:29;1.48;;;0.60;;
22429;SDS011;11382;48.086;11.632;2023-11-18T13:43:58;1.73;;;1.10;;
22429;SDS011;11382;48.086;11.632;2023-11-18T13:46:27;1.90;;;0.93;;
22429;SDS011;11382;48.086;11.632;2023-11-18T13:48:55;1.77;;;1.15;;
22429;SDS011;11382;48.086;11.632;2023-11-18T13:51:25;1.30;;;1.00;;
22429;SDS011;11382;48.086;11.632;2023-11-18T13:53:53;1.27;;;0.80;;
22429;SDS011;11382;48.086;11.632;2023-11-18T13:56:22;2.92;;;1.10;;
22429;SDS011;11382;48.086;11.632;2023-11-18T13:58:55;1.30;;;0.80;;
22429;SDS011;11382;48.086;11.632;2023-11-18T14:01:23;1.20;;;0.77;;
22429;SDS011;11382;48.086;11.632;2023-11-18T14:03:53;1.98;;;1.10;;
22429;SDS011;11382;48.086;11.632;2023-11-18T14:06:28;3.13;;;1.17;;
22429;SDS011;11382;48.086;11.632;2023-11-18T14:08:56;1.48;;;0.80;;
22429;SDS011;11382;48.086;11.632;2023-11-18T14:11:24;1.00;;;0.73;;
22429;SDS011;11382;48.086;11.632;2023-11-18T14:13:52;3.17;;;1.10;;
22429;SDS011;11382;48.086;11.632;2023-11-18T14:16:21;1.25;;;1.15;;
22429;SDS011;11382;48.086;11.632;2023-11-18T14:18:50;1.98;;;1.20;;
22429;SDS011;11382;48.086;11.632;2023-11-18T14:21:18;1.75;;;1.10;;
22429;SDS011;11382;48.086;11.632;2023-11-18T14:23:46;2.65;;;0.85;;
22429;SDS011;11382;48.086;11.632;2023-11-18T14:26:14;1.90;;;1.08;;
22429;SDS011;11382;48.086;11.632;2023-11-18T14:28:42;1.88;;;0.80;;
22429;SDS011;11382;48.086;11.632;2023-11-18T14:31:10;3.88;;;1.15;;
22429;SDS011;11382;48.086;11.632;2023-11-18T14:33:41;6.05;;;1.42;;
22429;SDS011;11382;48.086;11.632;2023-11-18T14:36:09;2.10;;;1.10;;
22429;SDS011;11382;48.086;11.632;2023-11-18T14:38:37;2.70;;;1.05;;
22429;SDS011;11382;48.086;11.632;2023-11-18T14:41:05;4.35;;;1.17;;
22429;SDS011;11382;48.086;11.632;2023-11-18T14:43:34;2.53;;;1.20;;
22429;SDS011;11382;48.086;11.632;2023-11-18T14:46:02;3.13;;;0.80;;
22429;SDS011;11382;48.086;11.632;2023-11-18T14:48:31;3.85;;;0.80;;
22429;SDS011;11382;48.086;11.632;2023-11-18T14:51:00;3.63;;;1.17;;
22429;SDS011;11382;48.086;11.632;2023-11-18T14:53:28;1.85;;;0.70;;
22429;SDS011;11382;48.086;11.632;2023-11-18T14:55:57;3.20;;;0.80;;
22429;SDS011;11382;48.086;11.632;2023-11-18T14:58:25;4.00;;;0.77;;
22429;SDS011;11382;48.086;11.632;2023-11-18T15:00:53;4.20;;;1.02;;
22429;SDS011;11382;48.086;11.632;2023-11-18T15:03:23;3.15;;;0.70;;
22429;SDS011;11382;48.086;11.632;2023-11-18T15:05:51;6.72;;;1.48;;